Auburn, Missouri
Current Conditions -  °F | °C
As of 2:54 PM on Friday 31 Oct 2014 (Local Time) from KSET Reporting Station
Few Clouds Few Clouds  
Wind Chill: 39°   Ceiling: Unl
Heat Index: 47°   Visibility: 10mi
Dew Point: 24°   Wind: 21mph
Humidity: 41%   Direction: 320°NW
Pressure: 30.3"   Gusts: 30mph
Location:  39.1646°N, 90.8436°W
Report Text: KSET 311954Z AUTO 32018G26KT 10SM FEW055 08/M04 A3030 RMK AO2 PK WND 36029/1932 SLP259 T00831044
Loading
Personal Weather Stations






























Interactive Weather Map
Tropical Storm Tracking
New forecast layout! Learn more

10-Day Weather Forecast

Advertisements
Track Severe Weather on mobile